sensor_id;sensor_type;location;lat;lon;timestamp;temperature;humidity
23751;DHT22;12055;52.098;13.176;2022-07-10T00:02:11;13.60;99.90
23751;DHT22;12055;52.098;13.176;2022-07-10T00:04:36;13.60;99.90
23751;DHT22;12055;52.098;13.176;2022-07-10T00:07:02;13.60;99.90
23751;DHT22;12055;52.098;13.176;2022-07-10T00:09:29;13.60;99.90
23751;DHT22;12055;52.098;13.176;2022-07-10T00:11:54;13.70;99.90
23751;DHT22;12055;52.098;13.176;2022-07-10T00:14:20;13.60;99.90
23751;DHT22;12055;52.098;13.176;2022-07-10T00:16:46;13.70;99.90
23751;DHT22;12055;52.098;13.176;2022-07-10T00:19:11;13.70;99.90
23751;DHT22;12055;52.098;13.176;2022-07-10T00:21:37;13.70;99.90
23751;DHT22;12055;52.098;13.176;2022-07-10T00:24:03;13.70;99.90
23751;DHT22;12055;52.098;13.176;2022-07-10T00:26:28;13.70;99.90
23751;DHT22;12055;52.098;13.176;2022-07-10T00:28:54;13.70;99.90
23751;DHT22;12055;52.098;13.176;2022-07-10T00:31:20;13.80;99.90
23751;DHT22;12055;52.098;13.176;2022-07-10T00:33:46;13.70;99.90
23751;DHT22;12055;52.098;13.176;2022-07-10T00:36:11;13.70;99.90
23751;DHT22;12055;52.098;13.176;2022-07-10T00:38:37;13.80;99.90
23751;DHT22;12055;52.098;13.176;2022-07-10T00:41:02;13.70;99.90
23751;DHT22;12055;52.098;13.176;2022-07-10T00:43:28;13.80;99.90
23751;DHT22;12055;52.098;13.176;2022-07-10T00:45:53;13.80;99.90
23751;DHT22;12055;52.098;13.176;2022-07-10T00:48:19;13.80;99.90
23751;DHT22;12055;52.098;13.176;2022-07-10T00:50:45;13.80;99.90
23751;DHT22;12055;52.098;13.176;2022-07-10T00:53:12;13.80;99.90
23751;DHT22;12055;52.098;13.176;2022-07-10T00:55:38;13.80;99.90
23751;DHT22;12055;52.098;13.176;2022-07-10T00:58:06;13.80;99.90
23751;DHT22;12055;52.098;13.176;2022-07-10T01:00:34;13.90;99.90
23751;DHT22;12055;52.098;13.176;2022-07-10T01:03:00;13.90;99.90
23751;DHT22;12055;52.098;13.176;2022-07-10T01:05:25;13.90;99.90
23751;DHT22;12055;52.098;13.176;2022-07-10T01:07:51;13.90;99.90
23751;DHT22;12055;52.098;13.176;2022-07-10T01:10:16;13.90;99.90
23751;DHT22;12055;52.098;13.176;2022-07-10T01:12:43;13.90;99.90
23751;DHT22;12055;52.098;13.176;2022-07-10T01:15:09;13.90;99.90
23751;DHT22;12055;52.098;13.176;2022-07-10T01:17:35;13.90;99.90
23751;DHT22;12055;52.098;13.176;2022-07-10T01:20:07;13.90;99.90
23751;DHT22;12055;52.098;13.176;2022-07-10T01:22:33;13.90;99.90
23751;DHT22;12055;52.098;13.176;2022-07-10T01:24:59;13.90;99.90
23751;DHT22;12055;52.098;13.176;2022-07-10T01:27:24;14.00;99.90
23751;DHT22;12055;52.098;13.176;2022-07-10T01:29:50;14.00;99.90
23751;DHT22;12055;52.098;13.176;2022-07-10T01:32:16;14.00;99.90
23751;DHT22;12055;52.098;13.176;2022-07-10T01:34:42;14.00;99.90
23751;DHT22;12055;52.098;13.176;2022-07-10T01:37:07;14.10;99.90
23751;DHT22;12055;52.098;13.176;2022-07-10T01:39:33;14.10;99.90
23751;DHT22;12055;52.098;13.176;2022-07-10T01:41:58;14.10;99.90
23751;DHT22;12055;52.098;13.176;2022-07-10T01:44:24;14.10;99.90
23751;DHT22;12055;52.098;13.176;2022-07-10T01:46:49;14.00;99.90
23751;DHT22;12055;52.098;13.176;2022-07-10T01:49:15;14.00;99.90
23751;DHT22;12055;52.098;13.176;2022-07-10T01:51:40;14.00;99.90
23751;DHT22;12055;52.098;13.176;2022-07-10T01:54:07;14.00;99.90
23751;DHT22;12055;52.098;13.176;2022-07-10T01:56:32;14.00;99.90
23751;DHT22;12055;52.098;13.176;2022-07-10T01:58:58;13.90;99.90
23751;DHT22;12055;52.098;13.176;2022-07-10T02:01:25;13.90;99.90
23751;DHT22;12055;52.098;13.176;2022-07-10T02:03:50;13.90;99.90
23751;DHT22;12055;52.098;13.176;2022-07-10T02:06:35;13.90;99.90
23751;DHT22;12055;52.098;13.176;2022-07-10T02:09:00;13.90;99.90
23751;DHT22;12055;52.098;13.176;2022-07-10T02:11:26;14.00;99.90
23751;DHT22;12055;52.098;13.176;2022-07-10T02:13:51;14.00;99.90
23751;DHT22;12055;52.098;13.176;2022-07-10T02:16:17;14.10;99.90
23751;DHT22;12055;52.098;13.176;2022-07-10T02:18:42;14.10;99.90
23751;DHT22;12055;52.098;13.176;2022-07-10T02:21:08;14.00;99.90
23751;DHT22;12055;52.098;13.176;2022-07-10T02:23:34;14.00;99.90
23751;DHT22;12055;52.098;13.176;2022-07-10T02:25:59;13.90;99.90
23751;DHT22;12055;52.098;13.176;2022-07-10T02:28:25;13.90;99.90
23751;DHT22;12055;52.098;13.176;2022-07-10T02:30:50;13.90;99.90
23751;DHT22;12055;52.098;13.176;2022-07-10T02:33:16;13.90;99.90
23751;DHT22;12055;52.098;13.176;2022-07-10T02:35:41;13.90;99.90
23751;DHT22;12055;52.098;13.176;2022-07-10T02:38:07;13.90;99.90
23751;DHT22;12055;52.098;13.176;2022-07-10T02:40:32;13.80;99.90
23751;DHT22;12055;52.098;13.176;2022-07-10T02:42:57;13.80;99.90
23751;DHT22;12055;52.098;13.176;2022-07-10T02:45:23;13.70;99.90
23751;DHT22;12055;52.098;13.176;2022-07-10T02:47:48;13.70;99.90
23751;DHT22;12055;52.098;13.176;2022-07-10T02:50:14;13.70;99.90
23751;DHT22;12055;52.098;13.176;2022-07-10T02:52:39;13.60;99.90
23751;DHT22;12055;52.098;13.176;2022-07-10T02:55:05;13.70;99.90
23751;DHT22;12055;52.098;13.176;2022-07-10T02:57:31;13.70;99.90
23751;DHT22;12055;52.098;13.176;2022-07-10T02:59:56;13.70;99.90
23751;DHT22;12055;52.098;13.176;2022-07-10T03:02:22;13.80;99.90
23751;DHT22;12055;52.098;13.176;2022-07-10T03:04:47;13.70;99.90
23751;DHT22;12055;52.098;13.176;2022-07-10T03:07:12;13.80;99.90
23751;DHT22;12055;52.098;13.176;2022-07-10T03:09:38;13.90;99.90
23751;DHT22;12055;52.098;13.176;2022-07-10T03:12:04;13.80;99.90
23751;DHT22;12055;52.098;13.176;2022-07-10T03:14:30;13.80;99.90
23751;DHT22;12055;52.098;13.176;2022-07-10T03:16:56;13.80;99.90
23751;DHT22;12055;52.098;13.176;2022-07-10T03:19:21;13.80;99.90
23751;DHT22;12055;52.098;13.176;2022-07-10T03:21:47;13.70;99.90
23751;DHT22;12055;52.098;13.176;2022-07-10T03:24:12;13.70;99.90
23751;DHT22;12055;52.098;13.176;2022-07-10T03:26:38;13.80;99.90
23751;DHT22;12055;52.098;13.176;2022-07-10T03:29:03;13.70;99.90
23751;DHT22;12055;52.098;13.176;2022-07-10T03:31:29;13.70;99.90
23751;DHT22;12055;52.098;13.176;2022-07-10T03:33:54;13.70;99.90
23751;DHT22;12055;52.098;13.176;2022-07-10T03:36:20;13.80;99.90
23751;DHT22;12055;52.098;13.176;2022-07-10T03:38:45;13.80;99.90
23751;DHT22;12055;52.098;13.176;2022-07-10T03:41:15;13.80;99.90
23751;DHT22;12055;52.098;13.176;2022-07-10T03:43:40;13.80;99.90
23751;DHT22;12055;52.098;13.176;2022-07-10T03:46:06;13.70;99.90
23751;DHT22;12055;52.098;13.176;2022-07-10T03:48:32;13.70;99.90
23751;DHT22;12055;52.098;13.176;2022-07-10T03:50:57;13.80;99.90
23751;DHT22;12055;52.098;13.176;2022-07-10T03:53:24;13.80;99.90
23751;DHT22;12055;52.098;13.176;2022-07-10T03:55:49;13.80;99.90
23751;DHT22;12055;52.098;13.176;2022-07-10T03:58:14;13.80;99.90
23751;DHT22;12055;52.098;13.176;2022-07-10T04:00:40;13.80;99.90
23751;DHT22;12055;52.098;13.176;2022-07-10T04:03:07;13.70;99.90
23751;DHT22;12055;52.098;13.176;2022-07-10T04:05:33;13.80;99.90
23751;DHT22;12055;52.098;13.176;2022-07-10T04:08:00;13.70;99.90
23751;DHT22;12055;52.098;13.176;2022-07-10T04:10:28;13.70;99.90
23751;DHT22;12055;52.098;13.176;2022-07-10T04:12:54;13.80;99.90
23751;DHT22;12055;52.098;13.176;2022-07-10T04:15:19;13.80;99.90
23751;DHT22;12055;52.098;13.176;2022-07-10T04:17:45;13.80;99.90
23751;DHT22;12055;52.098;13.176;2022-07-10T04:20:11;13.80;99.90
23751;DHT22;12055;52.098;13.176;2022-07-10T04:22:37;13.90;99.90
23751;DHT22;12055;52.098;13.176;2022-07-10T04:25:03;13.90;99.90
23751;DHT22;12055;52.098;13.176;2022-07-10T04:27:29;13.80;99.90
23751;DHT22;12055;52.098;13.176;2022-07-10T04:29:54;13.70;99.90
23751;DHT22;12055;52.098;13.176;2022-07-10T04:32:20;13.80;99.90
23751;DHT22;12055;52.098;13.176;2022-07-10T04:34:45;14.20;99.90
23751;DHT22;12055;52.098;13.176;2022-07-10T04:37:11;14.50;99.90
23751;DHT22;12055;52.098;13.176;2022-07-10T04:39:37;14.60;99.90
23751;DHT22;12055;52.098;13.176;2022-07-10T04:42:03;14.40;99.90
23751;DHT22;12055;52.098;13.176;2022-07-10T04:44:29;14.30;99.90
23751;DHT22;12055;52.098;13.176;2022-07-10T04:46:55;14.20;99.90
23751;DHT22;12055;52.098;13.176;2022-07-10T04:49:21;14.20;99.90
23751;DHT22;12055;52.098;13.176;2022-07-10T04:51:46;14.50;99.90
23751;DHT22;12055;52.098;13.176;2022-07-10T04:54:12;14.80;99.90
23751;DHT22;12055;52.098;13.176;2022-07-10T04:56:37;15.20;99.90
23751;DHT22;12055;52.098;13.176;2022-07-10T04:59:03;15.10;99.90
23751;DHT22;12055;52.098;13.176;2022-07-10T05:01:28;15.00;99.90
23751;DHT22;12055;52.098;13.176;2022-07-10T05:03:54;15.00;99.90
23751;DHT22;12055;52.098;13.176;2022-07-10T05:06:19;14.90;99.90
23751;DHT22;12055;52.098;13.176;2022-07-10T05:08:45;15.00;99.90
23751;DHT22;12055;52.098;13.176;2022-07-10T05:11:10;15.10;99.90
23751;DHT22;12055;52.098;13.176;2022-07-10T05:13:36;15.50;99.90
23751;DHT22;12055;52.098;13.176;2022-07-10T05:16:02;15.60;99.90
23751;DHT22;12055;52.098;13.176;2022-07-10T05:18:28;15.80;99.90
23751;DHT22;12055;52.098;13.176;2022-07-10T05:20:53;15.90;99.90
23751;DHT22;12055;52.098;13.176;2022-07-10T05:23:19;16.10;99.90
23751;DHT22;12055;52.098;13.176;2022-07-10T05:25:44;16.20;99.90
23751;DHT22;12055;52.098;13.176;2022-07-10T05:28:11;15.80;99.90
23751;DHT22;12055;52.098;13.176;2022-07-10T05:30:39;15.60;99.90
23751;DHT22;12055;52.098;13.176;2022-07-10T05:33:05;15.30;99.90
23751;DHT22;12055;52.098;13.176;2022-07-10T05:35:30;15.20;99.90
23751;DHT22;12055;52.098;13.176;2022-07-10T05:37:55;15.40;99.90
23751;DHT22;12055;52.098;13.176;2022-07-10T05:40:21;15.50;99.90
23751;DHT22;12055;52.098;13.176;2022-07-10T05:42:47;15.40;99.90
23751;DHT22;12055;52.098;13.176;2022-07-10T05:45:12;15.30;99.90
23751;DHT22;12055;52.098;13.176;2022-07-10T05:47:38;15.30;99.90
23751;DHT22;12055;52.098;13.176;2022-07-10T05:50:04;15.20;99.90
23751;DHT22;12055;52.098;13.176;2022-07-10T05:52:30;15.10;99.90
23751;DHT22;12055;52.098;13.176;2022-07-10T05:54:56;15.10;99.90
23751;DHT22;12055;52.098;13.176;2022-07-10T05:57:22;15.10;99.90
23751;DHT22;12055;52.098;13.176;2022-07-10T05:59:47;15.10;99.90
23751;DHT22;12055;52.098;13.176;2022-07-10T06:02:13;15.20;99.90
23751;DHT22;12055;52.098;13.176;2022-07-10T06:04:39;15.70;99.90
23751;DHT22;12055;52.098;13.176;2022-07-10T06:07:04;15.80;99.90
23751;DHT22;12055;52.098;13.176;2022-07-10T06:09:30;16.00;99.90
23751;DHT22;12055;52.098;13.176;2022-07-10T06:11:55;16.50;99.90
23751;DHT22;12055;52.098;13.176;2022-07-10T06:14:21;16.70;99.90
23751;DHT22;12055;52.098;13.176;2022-07-10T06:16:46;16.60;99.90
23751;DHT22;12055;52.098;13.176;2022-07-10T06:19:12;16.70;99.90
23751;DHT22;12055;52.098;13.176;2022-07-10T06:21:37;17.00;99.90
23751;DHT22;12055;52.098;13.176;2022-07-10T06:24:03;17.20;99.90
23751;DHT22;12055;52.098;13.176;2022-07-10T06:26:29;17.10;99.90
23751;DHT22;12055;52.098;13.176;2022-07-10T06:28:54;17.30;99.90
23751;DHT22;12055;52.098;13.176;2022-07-10T06:31:20;17.30;99.90
23751;DHT22;12055;52.098;13.176;2022-07-10T06:33:46;17.80;99.90
23751;DHT22;12055;52.098;13.176;2022-07-10T06:36:11;17.60;99.90
23751;DHT22;12055;52.098;13.176;2022-07-10T06:38:37;17.20;99.90
23751;DHT22;12055;52.098;13.176;2022-07-10T06:41:03;16.80;99.90
23751;DHT22;12055;52.098;13.176;2022-07-10T06:43:29;16.50;99.90
23751;DHT22;12055;52.098;13.176;2022-07-10T06:45:55;16.10;99.90
23751;DHT22;12055;52.098;13.176;2022-07-10T06:48:20;15.80;99.90
23751;DHT22;12055;52.098;13.176;2022-07-10T06:50:46;15.80;99.90
23751;DHT22;12055;52.098;13.176;2022-07-10T06:53:11;15.80;99.90
23751;DHT22;12055;52.098;13.176;2022-07-10T06:55:37;16.00;99.90
23751;DHT22;12055;52.098;13.176;2022-07-10T06:58:03;16.10;99.90
23751;DHT22;12055;52.098;13.176;2022-07-10T07:00:29;16.20;99.90
23751;DHT22;12055;52.098;13.176;2022-07-10T07:02:54;16.90;99.90
23751;DHT22;12055;52.098;13.176;2022-07-10T07:05:20;17.20;99.90
23751;DHT22;12055;52.098;13.176;2022-07-10T07:07:46;18.10;99.90
23751;DHT22;12055;52.098;13.176;2022-07-10T07:10:11;18.30;99.90
23751;DHT22;12055;52.098;13.176;2022-07-10T07:12:37;17.50;99.90
23751;DHT22;12055;52.098;13.176;2022-07-10T07:15:03;17.10;99.90
23751;DHT22;12055;52.098;13.176;2022-07-10T07:17:29;16.80;99.90
23751;DHT22;12055;52.098;13.176;2022-07-10T07:20:12;16.60;99.90
23751;DHT22;12055;52.098;13.176;2022-07-10T07:22:57;16.50;99.90
23751;DHT22;12055;52.098;13.176;2022-07-10T07:25:35;16.60;99.90
23751;DHT22;12055;52.098;13.176;2022-07-10T07:28:00;16.70;99.90
23751;DHT22;12055;52.098;13.176;2022-07-10T07:30:26;16.70;99.90
23751;DHT22;12055;52.098;13.176;2022-07-10T07:32:51;16.80;99.90
23751;DHT22;12055;52.098;13.176;2022-07-10T07:35:17;17.00;99.90
23751;DHT22;12055;52.098;13.176;2022-07-10T07:37:44;17.00;99.90
23751;DHT22;12055;52.098;13.176;2022-07-10T07:40:15;16.90;99.90
23751;DHT22;12055;52.098;13.176;2022-07-10T07:42:42;16.60;99.90
23751;DHT22;12055;52.098;13.176;2022-07-10T07:45:09;16.50;99.90
23751;DHT22;12055;52.098;13.176;2022-07-10T07:50:18;16.60;99.90
23751;DHT22;12055;52.098;13.176;2022-07-10T07:52:45;16.70;99.90
23751;DHT22;12055;52.098;13.176;2022-07-10T07:55:11;16.80;99.90
23751;DHT22;12055;52.098;13.176;2022-07-10T07:57:38;17.40;99.90
23751;DHT22;12055;52.098;13.176;2022-07-10T08:00:07;17.40;99.90
23751;DHT22;12055;52.098;13.176;2022-07-10T08:02:33;17.20;99.90
23751;DHT22;12055;52.098;13.176;2022-07-10T08:04:59;17.40;99.90
23751;DHT22;12055;52.098;13.176;2022-07-10T08:07:36;17.70;99.90
23751;DHT22;12055;52.098;13.176;2022-07-10T08:10:03;17.50;99.90
23751;DHT22;12055;52.098;13.176;2022-07-10T08:12:29;17.00;99.90
23751;DHT22;12055;52.098;13.176;2022-07-10T08:14:54;16.60;99.90
23751;DHT22;12055;52.098;13.176;2022-07-10T08:17:20;16.20;99.90
23751;DHT22;12055;52.098;13.176;2022-07-10T08:19:47;16.00;99.90
23751;DHT22;12055;52.098;13.176;2022-07-10T08:22:12;16.00;99.90
23751;DHT22;12055;52.098;13.176;2022-07-10T08:24:38;16.10;99.90
23751;DHT22;12055;52.098;13.176;2022-07-10T08:27:04;16.00;99.90
23751;DHT22;12055;52.098;13.176;2022-07-10T08:29:31;16.40;99.90
23751;DHT22;12055;52.098;13.176;2022-07-10T08:31:57;16.70;99.90
23751;DHT22;12055;52.098;13.176;2022-07-10T08:34:22;17.10;99.90
23751;DHT22;12055;52.098;13.176;2022-07-10T08:36:47;17.70;99.90
23751;DHT22;12055;52.098;13.176;2022-07-10T08:39:13;18.10;99.90
23751;DHT22;12055;52.098;13.176;2022-07-10T08:41:42;18.50;99.90
23751;DHT22;12055;52.098;13.176;2022-07-10T08:44:08;18.80;99.90
23751;DHT22;12055;52.098;13.176;2022-07-10T08:46:34;18.60;99.90
23751;DHT22;12055;52.098;13.176;2022-07-10T08:49:05;18.10;99.90
23751;DHT22;12055;52.098;13.176;2022-07-10T08:51:40;17.40;99.90
23751;DHT22;12055;52.098;13.176;2022-07-10T08:54:07;16.90;99.90
23751;DHT22;12055;52.098;13.176;2022-07-10T08:56:34;16.50;99.90
23751;DHT22;12055;52.098;13.176;2022-07-10T08:59:01;16.40;99.90
23751;DHT22;12055;52.098;13.176;2022-07-10T09:01:27;16.50;99.90
23751;DHT22;12055;52.098;13.176;2022-07-10T09:03:52;16.80;99.90
23751;DHT22;12055;52.098;13.176;2022-07-10T09:06:18;17.10;99.90
23751;DHT22;12055;52.098;13.176;2022-07-10T09:08:58;17.70;99.90
23751;DHT22;12055;52.098;13.176;2022-07-10T09:11:25;18.00;99.90
23751;DHT22;12055;52.098;13.176;2022-07-10T09:13:56;18.50;99.90
23751;DHT22;12055;52.098;13.176;2022-07-10T09:16:32;18.80;99.90
23751;DHT22;12055;52.098;13.176;2022-07-10T09:19:23;18.80;99.90
23751;DHT22;12055;52.098;13.176;2022-07-10T09:21:53;18.30;99.90
23751;DHT22;12055;52.098;13.176;2022-07-10T09:24:20;18.00;99.90
23751;DHT22;12055;52.098;13.176;2022-07-10T09:27:00;18.30;99.90
23751;DHT22;12055;52.098;13.176;2022-07-10T09:29:33;18.30;99.90
23751;DHT22;12055;52.098;13.176;2022-07-10T09:32:09;18.00;99.90
23751;DHT22;12055;52.098;13.176;2022-07-10T09:34:47;17.70;99.90
23751;DHT22;12055;52.098;13.176;2022-07-10T09:42:32;18.30;99.90
23751;DHT22;12055;52.098;13.176;2022-07-10T09:47:39;18.90;99.90
23751;DHT22;12055;52.098;13.176;2022-07-10T09:50:26;18.50;99.90
23751;DHT22;12055;52.098;13.176;2022-07-10T09:52:55;18.40;99.90
23751;DHT22;12055;52.098;13.176;2022-07-10T09:55:24;18.50;99.90
23751;DHT22;12055;52.098;13.176;2022-07-10T09:57:58;18.40;99.90
23751;DHT22;12055;52.098;13.176;2022-07-10T10:00:27;18.20;99.90
23751;DHT22;12055;52.098;13.176;2022-07-10T10:03:00;18.50;99.90
23751;DHT22;12055;52.098;13.176;2022-07-10T10:06:15;18.80;99.90
23751;DHT22;12055;52.098;13.176;2022-07-10T10:08:21;18.90;99.90
23751;DHT22;12055;52.098;13.176;2022-07-10T10:10:49;19.40;99.90
23751;DHT22;12055;52.098;13.176;2022-07-10T10:13:21;19.50;99.90
23751;DHT22;12055;52.098;13.176;2022-07-10T10:15:48;19.90;99.90
23751;DHT22;12055;52.098;13.176;2022-07-10T10:18:17;20.20;99.90
23751;DHT22;12055;52.098;13.176;2022-07-10T10:20:45;20.40;99.90
23751;DHT22;12055;52.098;13.176;2022-07-10T10:23:16;20.00;99.90
23751;DHT22;12055;52.098;13.176;2022-07-10T10:25:43;19.70;99.90
23751;DHT22;12055;52.098;13.176;2022-07-10T10:28:10;19.50;99.90
23751;DHT22;12055;52.098;13.176;2022-07-10T10:30:38;19.10;99.90
23751;DHT22;12055;52.098;13.176;2022-07-10T10:33:40;19.00;99.90
23751;DHT22;12055;52.098;13.176;2022-07-10T10:36:08;18.50;99.90
23751;DHT22;12055;52.098;13.176;2022-07-10T10:41:27;18.50;99.90
23751;DHT22;12055;52.098;13.176;2022-07-10T10:46:35;18.50;99.90
23751;DHT22;12055;52.098;13.176;2022-07-10T10:49:07;19.10;99.90
23751;DHT22;12055;52.098;13.176;2022-07-10T10:54:28;19.90;99.90
23751;DHT22;12055;52.098;13.176;2022-07-10T10:59:51;20.40;99.90
23751;DHT22;12055;52.098;13.176;2022-07-10T11:02:29;20.40;99.90
23751;DHT22;12055;52.098;13.176;2022-07-10T11:07:58;20.30;99.90
23751;DHT22;12055;52.098;13.176;2022-07-10T11:10:41;20.00;99.90
23751;DHT22;12055;52.098;13.176;2022-07-10T11:13:14;19.80;99.90
23751;DHT22;12055;52.098;13.176;2022-07-10T11:15:43;19.40;99.90
23751;DHT22;12055;52.098;13.176;2022-07-10T11:18:13;19.10;99.90
23751;DHT22;12055;52.098;13.176;2022-07-10T11:20:47;19.10;99.90
23751;DHT22;12055;52.098;13.176;2022-07-10T11:26:06;19.60;99.90
23751;DHT22;12055;52.098;13.176;2022-07-10T11:28:53;20.00;99.90
23751;DHT22;12055;52.098;13.176;2022-07-10T11:31:20;20.40;99.90
23751;DHT22;12055;52.098;13.176;2022-07-10T11:33:48;20.60;99.90
23751;DHT22;12055;52.098;13.176;2022-07-10T11:36:17;21.00;99.90
23751;DHT22;12055;52.098;13.176;2022-07-10T11:38:44;20.80;99.90
23751;DHT22;12055;52.098;13.176;2022-07-10T11:41:18;21.20;99.90
23751;DHT22;12055;52.098;13.176;2022-07-10T11:43:55;22.00;99.90
23751;DHT22;12055;52.098;13.176;2022-07-10T11:46:23;22.20;99.90
23751;DHT22;12055;52.098;13.176;2022-07-10T11:48:50;21.90;99.90
23751;DHT22;12055;52.098;13.176;2022-07-10T11:51:36;21.80;99.90
23751;DHT22;12055;52.098;13.176;2022-07-10T11:54:15;21.60;99.90
23751;DHT22;12055;52.098;13.176;2022-07-10T11:56:50;21.90;99.90
23751;DHT22;12055;52.098;13.176;2022-07-10T11:59:17;21.50;99.90
23751;DHT22;12055;52.098;13.176;2022-07-10T12:01:47;21.00;99.90
23751;DHT22;12055;52.098;13.176;2022-07-10T12:04:16;21.00;99.90
23751;DHT22;12055;52.098;13.176;2022-07-10T12:06:44;20.70;99.90
23751;DHT22;12055;52.098;13.176;2022-07-10T12:09:10;20.30;99.90
23751;DHT22;12055;52.098;13.176;2022-07-10T12:11:36;20.00;99.90
23751;DHT22;12055;52.098;13.176;2022-07-10T12:14:16;19.60;99.90
23751;DHT22;12055;52.098;13.176;2022-07-10T12:16:47;19.30;99.90
23751;DHT22;12055;52.098;13.176;2022-07-10T12:19:15;19.20;99.90
23751;DHT22;12055;52.098;13.176;2022-07-10T12:21:42;19.40;99.90
23751;DHT22;12055;52.098;13.176;2022-07-10T12:24:08;19.80;99.90
23751;DHT22;12055;52.098;13.176;2022-07-10T12:26:36;20.00;99.90
23751;DHT22;12055;52.098;13.176;2022-07-10T12:29:02;20.40;99.90
23751;DHT22;12055;52.098;13.176;2022-07-10T12:31:29;20.60;99.90
23751;DHT22;12055;52.098;13.176;2022-07-10T12:33:58;20.50;99.90
23751;DHT22;12055;52.098;13.176;2022-07-10T12:36:40;20.30;99.90
23751;DHT22;12055;52.098;13.176;2022-07-10T12:39:06;20.10;99.90
23751;DHT22;12055;52.098;13.176;2022-07-10T12:41:31;20.10;99.90
23751;DHT22;12055;52.098;13.176;2022-07-10T12:43:57;20.40;99.90
23751;DHT22;12055;52.098;13.176;2022-07-10T12:46:23;20.50;99.90
23751;DHT22;12055;52.098;13.176;2022-07-10T12:51:32;21.20;99.90
23751;DHT22;12055;52.098;13.176;2022-07-10T12:53:57;21.40;99.90
23751;DHT22;12055;52.098;13.176;2022-07-10T12:58:57;22.20;99.90
23751;DHT22;12055;52.098;13.176;2022-07-10T13:01:22;22.10;99.90
23751;DHT22;12055;52.098;13.176;2022-07-10T13:03:48;22.30;99.90
23751;DHT22;12055;52.098;13.176;2022-07-10T13:06:30;22.60;99.90
23751;DHT22;12055;52.098;13.176;2022-07-10T13:08:56;22.80;99.90
23751;DHT22;12055;52.098;13.176;2022-07-10T13:11:22;23.70;99.90
23751;DHT22;12055;52.098;13.176;2022-07-10T13:13:49;23.80;99.90
23751;DHT22;12055;52.098;13.176;2022-07-10T13:16:14;22.70;99.90
23751;DHT22;12055;52.098;13.176;2022-07-10T13:18:42;22.00;99.90
23751;DHT22;12055;52.098;13.176;2022-07-10T13:21:08;21.30;99.90
23751;DHT22;12055;52.098;13.176;2022-07-10T13:23:34;20.50;99.90
23751;DHT22;12055;52.098;13.176;2022-07-10T13:25:59;20.10;99.90
23751;DHT22;12055;52.098;13.176;2022-07-10T13:28:26;20.00;99.90
23751;DHT22;12055;52.098;13.176;2022-07-10T13:30:52;20.20;99.90
23751;DHT22;12055;52.098;13.176;2022-07-10T13:33:18;20.60;99.90
23751;DHT22;12055;52.098;13.176;2022-07-10T13:35:44;20.90;99.90
23751;DHT22;12055;52.098;13.176;2022-07-10T13:38:09;21.20;99.90
23751;DHT22;12055;52.098;13.176;2022-07-10T13:40:36;21.80;99.90
23751;DHT22;12055;52.098;13.176;2022-07-10T13:43:02;22.70;99.90
23751;DHT22;12055;52.098;13.176;2022-07-10T13:45:28;22.80;99.90
23751;DHT22;12055;52.098;13.176;2022-07-10T13:48:02;22.50;99.90
23751;DHT22;12055;52.098;13.176;2022-07-10T13:50:28;22.20;99.90
23751;DHT22;12055;52.098;13.176;2022-07-10T13:52:54;21.90;99.90
23751;DHT22;12055;52.098;13.176;2022-07-10T13:55:19;22.50;99.90
23751;DHT22;12055;52.098;13.176;2022-07-10T13:57:45;22.70;99.90
23751;DHT22;12055;52.098;13.176;2022-07-10T14:00:11;23.00;99.90
23751;DHT22;12055;52.098;13.176;2022-07-10T14:02:37;23.30;99.90
23751;DHT22;12055;52.098;13.176;2022-07-10T14:05:02;23.20;99.90
23751;DHT22;12055;52.098;13.176;2022-07-10T14:07:28;23.30;99.90
23751;DHT22;12055;52.098;13.176;2022-07-10T14:09:54;25.30;99.90
23751;DHT22;12055;52.098;13.176;2022-07-10T14:12:19;25.40;97.90
23751;DHT22;12055;52.098;13.176;2022-07-10T14:14:45;24.50;99.50
23751;DHT22;12055;52.098;13.176;2022-07-10T14:17:10;25.20;98.60
23751;DHT22;12055;52.098;13.176;2022-07-10T14:19:37;25.60;95.80
23751;DHT22;12055;52.098;13.176;2022-07-10T14:22:03;26.70;94.80
23751;DHT22;12055;52.098;13.176;2022-07-10T14:24:28;28.00;95.50
23751;DHT22;12055;52.098;13.176;2022-07-10T14:26:54;28.10;91.70
23751;DHT22;12055;52.098;13.176;2022-07-10T14:29:20;27.00;90.50
23751;DHT22;12055;52.098;13.176;2022-07-10T14:31:46;24.90;91.90
23751;DHT22;12055;52.098;13.176;2022-07-10T14:34:20;23.30;93.90
23751;DHT22;12055;52.098;13.176;2022-07-10T14:36:49;22.40;95.80
23751;DHT22;12055;52.098;13.176;2022-07-10T14:39:15;23.20;94.80
23751;DHT22;12055;52.098;13.176;2022-07-10T14:41:40;24.20;95.10
23751;DHT22;12055;52.098;13.176;2022-07-10T14:44:06;25.80;94.00
23751;DHT22;12055;52.098;13.176;2022-07-10T14:46:32;25.80;92.00
23751;DHT22;12055;52.098;13.176;2022-07-10T14:48:57;24.50;92.70
23751;DHT22;12055;52.098;13.176;2022-07-10T14:51:23;23.30;93.20
23751;DHT22;12055;52.098;13.176;2022-07-10T14:53:49;22.60;95.00
23751;DHT22;12055;52.098;13.176;2022-07-10T14:56:14;22.70;95.30
23751;DHT22;12055;52.098;13.176;2022-07-10T14:58:45;22.40;95.80
23751;DHT22;12055;52.098;13.176;2022-07-10T15:01:11;22.60;96.10
23751;DHT22;12055;52.098;13.176;2022-07-10T15:03:36;22.50;96.40
23751;DHT22;12055;52.098;13.176;2022-07-10T15:06:02;21.90;95.40
23751;DHT22;12055;52.098;13.176;2022-07-10T15:08:27;21.50;96.10
23751;DHT22;12055;52.098;13.176;2022-07-10T15:10:53;21.40;96.70
23751;DHT22;12055;52.098;13.176;2022-07-10T15:13:20;21.60;97.70
23751;DHT22;12055;52.098;13.176;2022-07-10T15:15:45;21.70;96.60
23751;DHT22;12055;52.098;13.176;2022-07-10T15:18:13;22.20;96.80
23751;DHT22;12055;52.098;13.176;2022-07-10T15:20:38;22.50;96.60
23751;DHT22;12055;52.098;13.176;2022-07-10T15:23:04;22.80;96.10
23751;DHT22;12055;52.098;13.176;2022-07-10T15:25:29;22.60;95.50
23751;DHT22;12055;52.098;13.176;2022-07-10T15:27:55;22.40;96.00
23751;DHT22;12055;52.098;13.176;2022-07-10T15:30:21;22.30;95.80
23751;DHT22;12055;52.098;13.176;2022-07-10T15:32:46;22.20;95.90
23751;DHT22;12055;52.098;13.176;2022-07-10T15:35:12;21.80;96.00
23751;DHT22;12055;52.098;13.176;2022-07-10T15:37:38;21.60;97.50
23751;DHT22;12055;52.098;13.176;2022-07-10T15:40:04;21.60;96.40
23751;DHT22;12055;52.098;13.176;2022-07-10T15:42:30;21.70;97.70
23751;DHT22;12055;52.098;13.176;2022-07-10T15:44:55;22.00;97.60
23751;DHT22;12055;52.098;13.176;2022-07-10T15:47:21;22.50;96.60
23751;DHT22;12055;52.098;13.176;2022-07-10T15:49:46;22.30;96.70